createdAt,value
2022-09-20T00:01:33.258Z,5.35
2022-09-20T00:04:02.416Z,5.90
2022-09-20T00:06:31.728Z,8.85
2022-09-20T00:09:01.291Z,5.55
2022-09-20T00:11:32.183Z,4.00
2022-09-20T00:14:01.507Z,5.55
2022-09-20T00:16:34.990Z,6.03
2022-09-20T00:19:04.282Z,5.15
2022-09-20T00:21:34.227Z,5.65
2022-09-20T00:24:02.028Z,5.18
2022-09-20T00:26:29.666Z,7.40
2022-09-20T00:28:58.359Z,5.55
2022-09-20T00:31:26.501Z,5.28
2022-09-20T00:34:13.667Z,8.48
2022-09-20T00:36:41.158Z,5.40
2022-09-20T00:39:12.198Z,6.28
2022-09-20T00:44:44.351Z,5.70
2022-09-20T00:47:39.785Z,4.53
2022-09-20T00:50:37.243Z,5.75
2022-09-20T00:53:15.950Z,8.23
2022-09-20T00:55:57.618Z,6.30
2022-09-20T00:58:28.125Z,6.53
2022-09-20T01:00:57.853Z,5.57
2022-09-20T01:03:31.384Z,5.57
2022-09-20T01:06:03.933Z,5.75
2022-09-20T01:08:32.898Z,6.63
2022-09-20T01:11:01.104Z,6.15
2022-09-20T01:13:28.935Z,6.35
2022-09-20T01:16:00.469Z,6.85
2022-09-20T01:18:30.029Z,6.80
2022-09-20T01:20:59.213Z,7.25
2022-09-20T01:23:45.732Z,6.80
2022-09-20T01:26:37.450Z,12.43
2022-09-20T01:29:11.546Z,7.45
2022-09-20T01:31:49.843Z,7.10
2022-09-20T01:34:46.376Z,8.10
2022-09-20T01:37:33.921Z,8.30
2022-09-20T01:40:28.073Z,6.60
2022-09-20T01:43:06.899Z,9.38
2022-09-20T01:45:34.490Z,5.85
2022-09-20T01:48:16.186Z,7.22
2022-09-20T01:50:55.585Z,8.73
2022-09-20T01:54:09.239Z,6.90
2022-09-20T01:56:58.077Z,8.15
2022-09-20T02:00:03.130Z,6.55
2022-09-20T02:02:45.429Z,4.82
2022-09-20T02:05:42.821Z,3.72
2022-09-20T02:08:29.060Z,5.72
2022-09-20T02:11:08.081Z,4.53
2022-09-20T02:13:41.363Z,5.20
2022-09-20T02:16:30.563Z,6.10
2022-09-20T02:19:33.204Z,6.90
2022-09-20T02:22:26.244Z,4.60
2022-09-20T02:25:12.160Z,5.25
2022-09-20T02:27:58.110Z,3.53
2022-09-20T02:30:40.247Z,4.38
2022-09-20T02:33:42.513Z,4.47
2022-09-20T02:36:32.028Z,4.60
2022-09-20T02:39:11.300Z,6.32
2022-09-20T02:41:46.129Z,5.05
2022-09-20T02:44:29.441Z,5.45
2022-09-20T02:47:12.028Z,4.38
2022-09-20T02:50:10.996Z,6.70
2022-09-20T02:52:59.094Z,5.93
2022-09-20T02:55:47.069Z,4.40
2022-09-20T02:58:47.445Z,5.85
2022-09-20T03:01:36.531Z,6.60
2022-09-20T03:04:57.617Z,6.95
2022-09-20T03:07:51.313Z,5.15
2022-09-20T03:10:43.571Z,8.60
2022-09-20T03:13:15.801Z,5.00
2022-09-20T03:16:20.109Z,3.65
2022-09-20T03:18:53.244Z,4.63
2022-09-20T03:21:48.380Z,4.88
2022-09-20T03:24:29.326Z,5.57
2022-09-20T03:27:15.731Z,6.05
2022-09-20T03:30:03.619Z,6.25
2022-09-20T03:33:02.799Z,6.13
2022-09-20T03:35:54.813Z,6.07
2022-09-20T03:38:40.096Z,6.47
2022-09-20T03:41:26.180Z,6.28
2022-09-20T03:43:56.487Z,10.30
2022-09-20T03:46:45.232Z,6.07
2022-09-20T03:49:51.223Z,4.32
2022-09-20T03:52:43.212Z,5.63
2022-09-20T03:55:16.124Z,5.55
2022-09-20T03:57:56.707Z,4.32
2022-09-20T04:00:38.616Z,3.83
2022-09-20T04:03:26.756Z,6.68
2022-09-20T04:06:14.359Z,7.13
2022-09-20T04:09:22.838Z,7.05
2022-09-20T04:12:27.608Z,5.18
2022-09-20T04:14:55.018Z,6.80
2022-09-20T04:17:38.039Z,6.18
2022-09-20T04:20:23.924Z,6.95
2022-09-20T04:22:55.070Z,10.68
2022-09-20T04:28:13.983Z,7.88
2022-09-20T04:30:46.245Z,5.40
2022-09-20T04:33:29.969Z,7.38
2022-09-20T04:36:24.967Z,6.53
2022-09-20T04:39:09.963Z,5.28
2022-09-20T04:41:58.485Z,7.55
2022-09-20T04:44:38.074Z,7.32
2022-09-20T04:47:43.174Z,8.15
2022-09-20T04:50:37.994Z,5.65
2022-09-20T04:53:39.161Z,6.53
2022-09-20T04:56:27.672Z,9.45
2022-09-20T04:59:07.976Z,6.97
2022-09-20T05:01:38.389Z,5.83
2022-09-20T05:04:37.395Z,7.47
2022-09-20T05:07:37.548Z,8.68
2022-09-20T05:10:04.830Z,10.90
2022-09-20T05:13:12.797Z,7.15
2022-09-20T05:16:02.206Z,11.07
2022-09-20T05:18:35.778Z,9.77
2022-09-20T05:21:23.137Z,12.18
2022-09-20T05:24:16.925Z,11.38
2022-09-20T05:27:10.498Z,11.40
2022-09-20T05:29:49.766Z,15.68
2022-09-20T05:32:36.007Z,13.85
2022-09-20T05:35:06.339Z,14.73
2022-09-20T05:37:33.644Z,11.97
2022-09-20T05:40:42.607Z,15.57
2022-09-20T05:43:20.333Z,14.60
2022-09-20T05:46:05.440Z,14.30
2022-09-20T05:48:55.430Z,12.95
2022-09-20T05:51:53.929Z,12.68
2022-09-20T05:54:58.664Z,15.93
2022-09-20T05:57:40.108Z,11.70
2022-09-20T06:00:14.495Z,10.18
2022-09-20T06:03:02.306Z,18.27
2022-09-20T06:05:57.464Z,12.82
2022-09-20T06:08:41.253Z,15.13
2022-09-20T06:11:29.582Z,14.85
2022-09-20T06:14:20.259Z,17.48
2022-09-20T06:17:19.153Z,12.70
2022-09-20T06:19:59.115Z,14.60
2022-09-20T06:22:32.357Z,15.35
2022-09-20T06:25:08.453Z,16.15
2022-09-20T06:27:47.181Z,14.65
2022-09-20T06:30:24.598Z,13.98
2022-09-20T06:33:08.607Z,13.20
2022-09-20T06:36:24.303Z,15.05
2022-09-20T06:39:31.534Z,17.98
2022-09-20T06:42:00.368Z,13.25
2022-09-20T06:44:27.752Z,14.27
2022-09-20T06:46:55.761Z,13.35
2022-09-20T06:49:29.086Z,12.65
2022-09-20T06:51:57.505Z,14.65
2022-09-20T06:54:27.119Z,23.90
2022-09-20T06:56:54.816Z,13.20
2022-09-20T06:59:22.386Z,15.88
2022-09-20T07:01:49.959Z,15.52
2022-09-20T07:04:17.557Z,15.30
2022-09-20T07:06:44.968Z,21.27
2022-09-20T07:09:12.558Z,14.20
2022-09-20T07:11:39.888Z,21.30
2022-09-20T07:14:08.047Z,17.88
2022-09-20T07:16:36.901Z,16.02
2022-09-20T07:19:06.618Z,15.70
2022-09-20T07:21:34.050Z,19.75
2022-09-20T07:24:02.417Z,20.98
2022-09-20T07:26:31.084Z,18.42
2022-09-20T07:28:59.670Z,21.52
2022-09-20T07:31:29.027Z,18.15
2022-09-20T07:33:56.475Z,20.55
2022-09-20T07:36:24.130Z,18.17
2022-09-20T07:38:53.163Z,18.60
2022-09-20T07:41:22.956Z,21.00
2022-09-20T07:43:51.160Z,15.40
2022-09-20T07:46:22.265Z,15.88
2022-09-20T07:48:50.076Z,15.80
2022-09-20T07:51:17.574Z,12.80
2022-09-20T07:53:44.988Z,12.50
2022-09-20T07:56:16.566Z,11.68
2022-09-20T07:58:48.638Z,12.00
2022-09-20T08:01:20.966Z,8.50
2022-09-20T08:03:48.774Z,9.43
2022-09-20T08:06:16.504Z,8.82
2022-09-20T08:08:44.644Z,9.60
2022-09-20T08:11:14.519Z,9.45
2022-09-20T08:16:41.064Z,6.47
2022-09-20T08:19:09.024Z,8.95
2022-09-20T08:21:38.840Z,6.70
2022-09-20T08:24:06.477Z,6.47
2022-09-20T08:26:35.856Z,9.70
2022-09-20T08:29:05.911Z,5.95
2022-09-20T08:31:36.872Z,7.13
2022-09-20T08:34:06.889Z,9.15
2022-09-20T08:36:37.152Z,6.43
2022-09-20T08:41:56.804Z,4.45
2022-09-20T08:44:45.685Z,4.10
2022-09-20T08:47:29.569Z,3.25
2022-09-20T08:49:59.081Z,3.28
2022-09-20T08:52:37.452Z,4.55
2022-09-20T08:55:17.038Z,5.35
2022-09-20T08:57:49.255Z,2.45
2022-09-20T09:00:19.436Z,3.55
2022-09-20T09:02:47.765Z,2.05
2022-09-20T09:05:43.030Z,2.17
2022-09-20T09:08:41.298Z,3.30
2022-09-20T09:11:14.650Z,5.25
2022-09-20T09:14:06.895Z,2.63
2022-09-20T09:16:37.676Z,3.55
2022-09-20T09:19:34.414Z,2.38
2022-09-20T09:22:05.591Z,4.25
2022-09-20T09:24:32.977Z,1.63
2022-09-20T09:27:19.104Z,1.92
2022-09-20T09:29:52.488Z,2.92
2022-09-20T09:32:31.053Z,2.42
2022-09-20T09:35:24.853Z,4.43
2022-09-20T09:38:02.343Z,1.95
2022-09-20T09:40:31.739Z,4.38
2022-09-20T09:43:01.786Z,6.05
2022-09-20T09:45:38.685Z,2.67
2022-09-20T09:48:27.972Z,6.50
2022-09-20T09:51:15.337Z,2.72
2022-09-20T09:53:44.770Z,3.63
2022-09-20T09:56:27.063Z,3.38
2022-09-20T09:59:15.125Z,3.88
2022-09-20T10:02:04.412Z,3.85
2022-09-20T10:04:50.509Z,2.67
2022-09-20T10:07:55.232Z,3.05
2022-09-20T10:10:34.378Z,3.97
2022-09-20T10:13:20.260Z,3.28
2022-09-20T10:16:17.547Z,3.72
2022-09-20T10:19:02.199Z,4.13
2022-09-20T10:21:48.912Z,5.45
2022-09-20T10:24:30.266Z,3.45
2022-09-20T10:27:05.945Z,4.22
2022-09-20T10:30:09.367Z,2.72
2022-09-20T10:32:51.987Z,3.00
2022-09-20T10:35:35.849Z,3.25
2022-09-20T10:38:13.241Z,4.60
2022-09-20T10:41:31.963Z,4.63
2022-09-20T10:44:35.045Z,3.97
2022-09-20T10:47:25.168Z,6.53
2022-09-20T10:49:58.513Z,7.10
2022-09-20T10:52:44.311Z,3.75
2022-09-20T10:55:33.374Z,4.53
2022-09-20T10:58:04.070Z,6.00
2022-09-20T11:00:50.782Z,1.58
2022-09-20T11:03:20.815Z,1.55
2022-09-20T11:06:00.193Z,1.27
2022-09-20T11:08:33.906Z,2.45
2022-09-20T11:11:20.951Z,5.25
2022-09-20T11:14:14.993Z,1.52
2022-09-20T11:16:59.661Z,4.70
2022-09-20T11:19:31.370Z,3.97
2022-09-20T11:22:19.715Z,4.55
2022-09-20T11:25:04.440Z,3.50
2022-09-20T11:27:35.986Z,2.50
2022-09-20T11:30:15.409Z,2.92
2022-09-20T11:32:54.190Z,1.65
2022-09-20T11:35:29.299Z,4.13
2022-09-20T11:38:19.131Z,2.80
2022-09-20T11:40:55.297Z,2.55
2022-09-20T11:43:25.385Z,3.38
2022-09-20T11:45:57.005Z,2.40
2022-09-20T11:48:29.488Z,2.45
2022-09-20T11:51:18.276Z,3.55
2022-09-20T11:54:12.508Z,3.28
2022-09-20T11:56:40.228Z,2.20
2022-09-20T11:59:23.119Z,2.38
2022-09-20T12:01:56.348Z,3.25
2022-09-20T12:04:32.940Z,4.57
2022-09-20T12:07:23.346Z,3.83
2022-09-20T12:10:02.952Z,2.28
2022-09-20T12:12:41.985Z,2.33
2022-09-20T12:15:56.924Z,4.50
2022-09-20T12:18:38.377Z,3.95
2022-09-20T12:21:18.198Z,4.07
2022-09-20T12:23:47.174Z,2.70
2022-09-20T12:26:21.054Z,2.92
2022-09-20T12:28:53.808Z,2.35
2022-09-20T12:31:32.091Z,3.08
2022-09-20T12:34:05.072Z,3.03
2022-09-20T12:36:55.069Z,2.80
2022-09-20T12:39:32.284Z,15.35
2022-09-20T12:42:04.215Z,4.28
2022-09-20T12:44:40.803Z,2.53
2022-09-20T12:47:22.896Z,2.83
2022-09-20T12:50:10.096Z,3.55
2022-09-20T12:52:58.490Z,1.88
2022-09-20T12:56:02.197Z,2.22
2022-09-20T12:59:00.582Z,2.17
2022-09-20T13:01:31.198Z,3.05
2022-09-20T13:04:44.071Z,1.83
2022-09-20T13:07:43.647Z,1.63
2022-09-20T13:10:25.261Z,3.25
2022-09-20T13:12:57.451Z,5.68
2022-09-20T13:15:25.299Z,1.92
2022-09-20T13:17:56.406Z,1.98
2022-09-20T13:20:28.062Z,5.28
2022-09-20T13:23:00.154Z,2.05
2022-09-20T13:25:28.675Z,5.05
2022-09-20T13:28:21.756Z,1.88
2022-09-20T13:30:49.231Z,2.60
2022-09-20T13:33:22.357Z,3.17
2022-09-20T13:35:54.480Z,2.83
2022-09-20T13:38:26.305Z,2.88
2022-09-20T13:43:39.959Z,1.85
2022-09-20T13:46:19.159Z,2.67
2022-09-20T13:48:47.565Z,6.78
2022-09-20T13:51:26.439Z,2.20
2022-09-20T13:53:54.522Z,3.28
2022-09-20T13:56:26.029Z,2.22
2022-09-20T13:58:54.178Z,2.70
2022-09-20T14:01:34.026Z,3.13
2022-09-20T14:04:07.182Z,2.08
2022-09-20T14:06:35.712Z,2.33
2022-09-20T14:09:10.842Z,2.53
2022-09-20T14:11:40.186Z,1.88
2022-09-20T14:14:10.443Z,4.22
2022-09-20T14:16:49.022Z,3.17
2022-09-20T14:19:18.913Z,4.60
2022-09-20T14:21:47.217Z,3.00
2022-09-20T14:24:14.527Z,3.70
2022-09-20T14:26:46.033Z,3.38
2022-09-20T14:29:34.921Z,8.15
2022-09-20T14:32:18.623Z,7.10
2022-09-20T14:35:13.209Z,3.15
2022-09-20T14:37:57.210Z,6.68
2022-09-20T14:40:30.671Z,4.30
2022-09-20T14:43:04.187Z,1.77
2022-09-20T14:45:35.800Z,2.42
2022-09-20T14:48:12.247Z,3.25
2022-09-20T14:50:43.523Z,4.68
2022-09-20T14:53:10.943Z,2.42
2022-09-20T14:55:41.507Z,2.67
2022-09-20T14:58:14.065Z,2.92
2022-09-20T15:01:05.160Z,4.40
2022-09-20T15:03:43.129Z,2.97
2022-09-20T15:06:12.807Z,3.83
2022-09-20T15:08:44.131Z,3.63
2022-09-20T15:11:18.199Z,2.40
2022-09-20T15:13:45.945Z,2.53
2022-09-20T15:16:17.582Z,4.05
2022-09-20T15:18:45.356Z,8.77
2022-09-20T15:21:12.805Z,4.65
2022-09-20T15:23:40.609Z,3.45
2022-09-20T15:26:10.569Z,4.28
2022-09-20T15:28:38.035Z,2.22
2022-09-20T15:31:05.403Z,3.70
2022-09-20T15:33:33.078Z,13.75
2022-09-20T15:36:02.776Z,3.53
2022-09-20T15:38:30.394Z,4.05
2022-09-20T15:41:03.463Z,4.68
2022-09-20T15:43:31.780Z,4.28
2022-09-20T15:46:21.151Z,3.28
2022-09-20T15:48:48.917Z,5.03
2022-09-20T15:51:16.822Z,19.35
2022-09-20T15:53:56.002Z,4.13
2022-09-20T15:56:25.599Z,5.18
2022-09-20T15:59:01.429Z,2.75
2022-09-20T16:01:32.372Z,3.00
2022-09-20T16:06:27.655Z,2.95
2022-09-20T16:08:55.771Z,4.15
2022-09-20T16:11:23.976Z,2.65
2022-09-20T16:13:55.617Z,6.07
2022-09-20T16:16:24.052Z,3.28
2022-09-20T16:19:10.801Z,2.13
2022-09-20T16:21:40.702Z,2.85
2022-09-20T16:24:12.429Z,5.20
2022-09-20T16:26:40.379Z,3.50
2022-09-20T16:29:08.148Z,3.50
2022-09-20T16:31:41.910Z,3.65
2022-09-20T16:34:17.747Z,3.88
2022-09-20T16:36:55.605Z,3.40
2022-09-20T16:39:27.722Z,4.68
2022-09-20T16:42:06.547Z,2.17
2022-09-20T16:44:36.042Z,2.58
2022-09-20T16:47:08.909Z,2.95
2022-09-20T16:49:37.105Z,2.90
2022-09-20T16:52:05.839Z,4.00
2022-09-20T16:54:33.880Z,3.40
2022-09-20T16:57:01.701Z,6.70
2022-09-20T16:59:29.094Z,2.25
2022-09-20T17:01:56.977Z,3.80
2022-09-20T17:04:24.424Z,6.47
2022-09-20T17:06:52.471Z,2.10
2022-09-20T17:09:19.894Z,3.95
2022-09-20T17:11:50.073Z,4.45
2022-09-20T17:14:19.975Z,3.28
2022-09-20T17:16:48.425Z,4.55
2022-09-20T17:19:18.632Z,3.75
2022-09-20T17:21:50.093Z,2.88
2022-09-20T17:24:19.825Z,2.10
2022-09-20T17:26:48.671Z,4.22
2022-09-20T17:29:17.534Z,2.50
2022-09-20T17:31:53.712Z,5.90
2022-09-20T17:34:22.661Z,5.32
2022-09-20T17:36:50.816Z,8.82
2022-09-20T17:39:18.900Z,5.85
2022-09-20T17:41:48.601Z,3.22
2022-09-20T17:44:16.874Z,2.83
2022-09-20T17:46:46.830Z,4.43
2022-09-20T17:49:16.546Z,2.57
2022-09-20T17:51:45.985Z,4.25
2022-09-20T17:54:14.100Z,5.00
2022-09-20T17:56:43.729Z,4.57
2022-09-20T17:59:12.737Z,3.30
2022-09-20T18:01:40.528Z,5.88
2022-09-20T18:04:09.094Z,4.53
2022-09-20T18:06:44.612Z,3.28
2022-09-20T18:09:15.144Z,3.55
2022-09-20T18:11:48.790Z,4.88
2022-09-20T18:14:20.423Z,3.58
2022-09-20T18:16:48.014Z,3.58
2022-09-20T18:19:16.229Z,4.20
2022-09-20T18:21:44.070Z,7.30
2022-09-20T18:24:12.245Z,4.00
2022-09-20T18:26:40.019Z,6.35
2022-09-20T18:29:12.984Z,2.60
2022-09-20T18:31:46.198Z,6.30
2022-09-20T18:34:17.950Z,4.70
2022-09-20T18:36:56.387Z,6.93
2022-09-20T18:39:34.912Z,5.45
2022-09-20T18:42:03.295Z,4.90
2022-09-20T18:44:33.724Z,3.60
2022-09-20T18:47:02.746Z,5.63
2022-09-20T18:49:32.534Z,6.75
2022-09-20T18:51:59.975Z,6.30
2022-09-20T18:54:30.468Z,4.88
2022-09-20T18:56:58.290Z,7.10
2022-09-20T18:59:27.458Z,8.85
2022-09-20T19:02:09.689Z,6.05
2022-09-20T19:04:51.842Z,7.50
2022-09-20T19:07:28.470Z,7.95
2022-09-20T19:10:40.306Z,6.10
2022-09-20T19:13:13.169Z,5.10
2022-09-20T19:15:52.224Z,5.72
2022-09-20T19:18:50.908Z,8.73
2022-09-20T19:21:42.582Z,5.85
2022-09-20T19:24:19.136Z,4.47
2022-09-20T19:26:46.733Z,7.28
2022-09-20T19:29:22.070Z,8.30
2022-09-20T19:31:51.346Z,4.95
2022-09-20T19:34:24.982Z,4.95
2022-09-20T19:36:52.280Z,6.20
2022-09-20T19:39:32.947Z,8.43
2022-09-20T19:42:36.159Z,6.18
2022-09-20T19:45:22.223Z,5.57
2022-09-20T19:48:00.846Z,4.65
2022-09-20T19:50:39.865Z,3.95
2022-09-20T19:53:09.279Z,5.32
2022-09-20T19:55:37.137Z,5.18
2022-09-20T19:58:04.922Z,6.25
2022-09-20T20:00:32.971Z,19.05
2022-09-20T20:03:00.694Z,6.30
2022-09-20T20:05:29.200Z,8.10
2022-09-20T20:08:22.184Z,7.07
2022-09-20T20:11:23.648Z,6.60
2022-09-20T20:14:02.688Z,7.10
2022-09-20T20:17:01.806Z,7.53
2022-09-20T20:19:51.476Z,5.05
2022-09-20T20:22:53.648Z,5.30
2022-09-20T20:25:34.879Z,6.10
2022-09-20T20:28:02.374Z,7.88
2022-09-20T20:30:29.774Z,5.50
2022-09-20T20:33:00.649Z,6.05
2022-09-20T20:35:28.011Z,6.70
2022-09-20T20:37:55.405Z,5.70
2022-09-20T20:40:22.922Z,7.53
2022-09-20T20:43:02.255Z,6.88
2022-09-20T20:45:30.519Z,6.65
2022-09-20T20:47:58.882Z,5.80
2022-09-20T20:50:28.044Z,10.27
2022-09-20T20:52:57.191Z,7.07
2022-09-20T20:55:24.965Z,7.07
2022-09-20T20:57:58.176Z,6.40
2022-09-20T21:00:27.468Z,7.95
2022-09-20T21:03:03.149Z,9.23
2022-09-20T21:05:30.933Z,9.48
2022-09-20T21:07:58.564Z,9.20
2022-09-20T21:10:26.109Z,6.93
2022-09-20T21:12:56.377Z,6.70
2022-09-20T21:15:23.761Z,6.47
2022-09-20T21:17:52.768Z,7.75
2022-09-20T21:20:21.589Z,8.32
2022-09-20T21:22:49.006Z,7.90
2022-09-20T21:25:16.466Z,8.10
2022-09-20T21:27:43.809Z,7.75
2022-09-20T21:30:11.892Z,11.10
2022-09-20T21:32:39.260Z,7.35
2022-09-20T21:35:07.018Z,6.03
2022-09-20T21:37:34.423Z,7.75
2022-09-20T21:40:02.280Z,9.70
2022-09-20T21:42:29.899Z,7.68
2022-09-20T21:44:57.312Z,8.35
2022-09-20T21:47:24.690Z,8.35
2022-09-20T21:49:52.217Z,7.65
2022-09-20T21:52:19.585Z,6.72
2022-09-20T21:54:46.977Z,8.07
2022-09-20T21:57:15.153Z,8.82
2022-09-20T21:59:42.803Z,9.35
2022-09-20T22:02:10.402Z,7.18
2022-09-20T22:04:37.988Z,8.05
2022-09-20T22:07:05.456Z,8.23
2022-09-20T22:09:32.924Z,7.35
2022-09-20T22:12:00.893Z,6.53
2022-09-20T22:14:28.501Z,6.80
2022-09-20T22:16:55.883Z,8.07
2022-09-20T22:19:24.548Z,7.43
2022-09-20T22:21:52.087Z,6.68
2022-09-20T22:24:19.831Z,11.70
2022-09-20T22:26:50.073Z,9.00
2022-09-20T22:29:18.271Z,9.10
2022-09-20T22:31:47.697Z,8.90
2022-09-20T22:34:17.470Z,13.05
2022-09-20T22:36:45.727Z,9.88
2022-09-20T22:39:14.497Z,7.40
2022-09-20T22:41:43.023Z,7.63
2022-09-20T22:44:11.397Z,9.40
2022-09-20T22:46:39.402Z,6.68
2022-09-20T22:49:09.528Z,7.20
2022-09-20T22:51:37.967Z,8.80
2022-09-20T22:54:08.361Z,6.82
2022-09-20T22:56:39.204Z,7.28
2022-09-20T22:59:10.386Z,23.95
2022-09-20T23:01:43.977Z,15.30
2022-09-20T23:04:14.639Z,10.07
2022-09-20T23:06:55.061Z,10.02
2022-09-20T23:09:25.155Z,9.30
2022-09-20T23:11:52.829Z,9.85
2022-09-20T23:14:21.785Z,14.63
2022-09-20T23:16:49.742Z,7.82
2022-09-20T23:19:17.909Z,10.80
2022-09-20T23:21:45.614Z,9.90
2022-09-20T23:24:14.512Z,9.63
2022-09-20T23:26:43.236Z,8.48
2022-09-20T23:29:13.473Z,8.02
2022-09-20T23:31:45.908Z,11.88
2022-09-20T23:34:15.360Z,8.50
2022-09-20T23:36:43.743Z,10.52
2022-09-20T23:39:12.169Z,10.90
2022-09-20T23:41:41.223Z,10.23
2022-09-20T23:44:10.371Z,8.43
2022-09-20T23:46:38.663Z,13.15
2022-09-20T23:49:07.165Z,11.73
2022-09-20T23:51:35.576Z,10.38
2022-09-20T23:54:03.898Z,12.45
2022-09-20T23:56:31.872Z,10.40
2022-09-20T23:58:59.416Z,9.68
